Enter the Airport ICAO Code

Search by Airport or City

Current Weather

ZGGG | Guangzhou Baiyun International Airport

Guangzhou, Guangdong, China

Last Update 11 Minutes Ago

Clear Sky

Temperature of 10 ºC

Light Winds from NorthEast

Temperature

10 ºC

Dew Point Temperature

06 ºC

Relative Humidity

76.25 %

Wind Direction

NorthEast (050º, Without Significant Variations)

Wind Velocity

4 km/h (1 kt)

Gusts

None

Visibility

No Significant Reductions

Sea Level Pressure

1022 hPa (Hectopascals)

Layers of Clouds

None

METAR ZGGG 052130Z 05001MPS CAVOK 10/06 Q1022 NOSIG

Weather Forecast

ZGGG | Guangzhou Baiyun International Airport

Guangzhou, Guangdong, China

Forecast valid for the next 20 Hours

From now on it is expected:

Clear Sky

Light to Moderate Winds from North

Maximum Temperature

23 ºC in 9 Hours

Minimum Temperature

11 ºC in 0 Hours

TAF ZGGG 051504Z 0518/0618 02005MPS CAVOK TX23/0607Z TN11/0522Z